Time;durP1;ratioP1;P1;durP2;ratioP2;P2;SDS_P1;SDS_P2;PMS_P1;PMS_P2;Temp;Humidity;BMP_temperature;BMP_pressure;BME280_temperature;BME280_humidity;BME280_pressure;Samples;Min_cycle;Max_cycle;Signal;HPM_P1;HPM_P2
2023/05/26 00:00:44;;;;;;;26.70;5.90;;;;;;;10.62;100.00;102839.03;5000937;28;20291;-71
2023/05/26 00:03:09;;;;;;;26.03;6.27;;;;;;;10.59;100.00;102843.09;4999481;28;20203;-71
2023/05/26 00:05:39;;;;;;;23.30;5.80;;;;;;;10.57;100.00;102844.72;5004632;28;20273;-71
2023/05/26 00:08:08;;;;;;;23.40;5.33;;;;;;;10.54;100.00;102839.44;5008258;28;20207;-71
2023/05/26 00:10:33;;;;;;;26.43;6.13;;;;;;;10.50;100.00;102840.09;5003281;28;20211;-71
2023/05/26 00:12:59;;;;;;;25.63;6.20;;;;;;;10.52;100.00;102838.50;5010100;28;20201;-70
2023/05/26 00:15:24;;;;;;;23.23;5.53;;;;;;;10.43;100.00;102838.00;5012805;28;20281;-69
2023/05/26 00:17:50;;;;;;;23.57;5.57;;;;;;;10.40;100.00;102836.16;5006979;28;20673;-71
2023/05/26 00:20:16;;;;;;;23.80;5.97;;;;;;;10.32;100.00;102840.00;4998071;28;20290;-70
2023/05/26 00:22:42;;;;;;;22.50;5.40;;;;;;;10.32;100.00;102839.16;5000913;28;20691;-70
2023/05/26 00:25:08;;;;;;;27.20;5.37;;;;;;;10.27;100.00;102844.00;4992908;28;20191;-70
2023/05/26 00:27:33;;;;;;;26.67;5.60;;;;;;;10.24;100.00;102841.31;5008442;28;20313;-70
2023/05/26 00:29:59;;;;;;;24.17;5.93;;;;;;;10.25;100.00;102839.63;5003123;28;20310;-70
2023/05/26 00:32:25;;;;;;;26.40;4.73;;;;;;;10.20;100.00;102846.16;4994346;28;20198;-70
2023/05/26 00:34:51;;;;;;;26.40;6.17;;;;;;;10.20;100.00;102849.63;4995237;28;20257;-70
2023/05/26 00:37:16;;;;;;;25.37;6.23;;;;;;;10.16;100.00;102840.03;4994617;28;20196;-71
2023/05/26 00:39:42;;;;;;;20.67;5.77;;;;;;;10.15;100.00;102847.59;5008124;28;20575;-71
2023/05/26 00:42:07;;;;;;;23.33;5.50;;;;;;;10.09;100.00;102852.41;5003540;28;20202;-70
2023/05/26 00:44:33;;;;;;;24.13;5.13;;;;;;;10.07;100.00;102848.88;5009062;28;20226;-69
2023/05/26 00:46:58;;;;;;;25.70;5.40;;;;;;;10.07;100.00;102847.22;4996752;28;20219;-70
2023/05/26 00:49:24;;;;;;;23.20;5.13;;;;;;;10.01;100.00;102849.41;5008769;28;20238;-70
2023/05/26 00:51:50;;;;;;;19.60;5.40;;;;;;;9.97;100.00;102846.59;4997862;28;20245;-69
2023/05/26 00:54:19;;;;;;;23.87;5.57;;;;;;;9.92;100.00;102854.03;5005759;28;20202;-70
2023/05/26 00:56:45;;;;;;;20.10;5.10;;;;;;;9.89;100.00;102845.28;4984168;28;20199;-69
2023/05/26 00:59:12;;;;;;;25.63;5.53;;;;;;;9.89;100.00;102852.97;5009688;28;20241;-70
2023/05/26 01:01:37;;;;;;;24.47;6.00;;;;;;;9.84;100.00;102864.63;4989319;28;20700;-70
2023/05/26 01:04:03;;;;;;;29.73;6.13;;;;;;;9.78;100.00;102861.75;5006233;28;20249;-70
2023/05/26 01:06:29;;;;;;;27.83;6.53;;;;;;;9.72;100.00;102859.72;5001167;28;20219;-69
2023/05/26 01:08:54;;;;;;;26.07;6.03;;;;;;;9.71;100.00;102867.31;4991699;28;20215;-70
2023/05/26 01:11:43;;;;;;;26.67;6.00;;;;;;;9.70;100.00;102865.56;5001614;28;20207;-70
2023/05/26 01:14:14;;;;;;;28.10;5.97;;;;;;;9.60;100.00;102870.97;4983168;28;20203;-70
2023/05/26 01:16:56;;;;;;;23.43;5.47;;;;;;;9.62;100.00;102867.69;4992022;28;20190;-70
2023/05/26 01:19:37;;;;;;;22.63;5.63;;;;;;;9.54;100.00;102873.19;5020492;28;20210;-70
2023/05/26 01:22:27;;;;;;;28.70;6.50;;;;;;;9.52;100.00;102870.53;4986093;28;20198;-70
2023/05/26 01:25:06;;;;;;;21.90;5.67;;;;;;;9.40;100.00;102867.28;5002196;28;20742;-70
2023/05/26 01:27:45;;;;;;;25.97;6.13;;;;;;;9.42;100.00;102869.94;4990482;28;20238;-70
2023/05/26 01:30:13;;;;;;;21.97;5.30;;;;;;;9.40;100.00;102867.28;4980678;28;20222;-69
2023/05/26 01:32:45;;;;;;;20.40;5.53;;;;;;;9.39;100.00;102878.31;4988663;28;20245;-70
2023/05/26 01:35:11;;;;;;;25.30;6.00;;;;;;;9.35;100.00;102881.47;5005277;28;20199;-70
2023/05/26 01:37:40;;;;;;;25.60;6.00;;;;;;;9.24;100.00;102885.09;5005126;28;20213;-70
2023/05/26 01:40:06;;;;;;;26.73;5.43;;;;;;;9.23;100.00;102880.81;5005315;28;20225;-70
2023/05/26 01:42:36;;;;;;;25.80;5.47;;;;;;;9.20;100.00;102888.28;5006249;28;20198;-70
2023/05/26 01:45:07;;;;;;;22.60;6.07;;;;;;;9.15;100.00;102882.03;4989382;28;20199;-70
2023/05/26 01:47:34;;;;;;;30.20;5.33;;;;;;;9.11;100.00;102891.97;5019850;28;20204;-70
2023/05/26 01:50:02;;;;;;;21.87;5.23;;;;;;;9.06;100.00;102893.38;5018366;28;20238;-70
2023/05/26 01:52:28;;;;;;;23.97;6.00;;;;;;;9.00;100.00;102887.91;4990296;28;20221;-70
2023/05/26 01:55:00;;;;;;;28.00;5.63;;;;;;;9.06;100.00;102895.94;4974212;28;20270;-70
2023/05/26 01:57:27;;;;;;;25.43;5.43;;;;;;;9.00;100.00;102896.47;4996383;28;20218;-70
2023/05/26 01:59:53;;;;;;;29.37;6.23;;;;;;;8.98;100.00;102894.63;4974093;28;20214;-70
2023/05/26 02:02:18;;;;;;;26.53;5.63;;;;;;;8.95;100.00;102892.78;4986924;28;20207;-70
2023/05/26 02:04:43;;;;;;;19.83;5.27;;;;;;;8.90;100.00;102896.69;4994011;28;20210;-69
2023/05/26 02:07:09;;;;;;;20.90;6.03;;;;;;;8.86;100.00;102904.13;4987782;28;20233;-71
2023/05/26 02:09:36;;;;;;;24.40;5.37;;;;;;;8.80;100.00;102901.19;5003890;28;20684;-69
2023/05/26 02:12:03;;;;;;;24.53;5.83;;;;;;;8.75;100.00;102900.06;4989900;28;20318;-69
2023/05/26 02:14:28;;;;;;;24.60;6.10;;;;;;;8.75;100.00;102897.50;5020710;28;20203;-69
2023/05/26 02:16:54;;;;;;;27.90;5.63;;;;;;;8.73;100.00;102901.63;5008050;28;20557;-70
2023/05/26 02:19:20;;;;;;;24.03;5.97;;;;;;;8.67;100.00;102907.22;5022406;28;20210;-70
2023/05/26 02:21:45;;;;;;;22.27;5.77;;;;;;;8.59;100.00;102913.56;4974266;28;20573;-70
2023/05/26 02:24:11;;;;;;;32.20;5.80;;;;;;;8.61;100.00;102913.66;5008700;28;20214;-70
2023/05/26 02:26:37;;;;;;;22.73;5.00;;;;;;;8.55;100.00;102910.72;5008331;28;20279;-70
2023/05/26 02:29:02;;;;;;;33.97;5.60;;;;;;;8.54;100.00;102908.97;5004575;28;20247;-70
2023/05/26 02:31:28;;;;;;;23.77;5.97;;;;;;;8.47;100.00;102917.06;4972283;28;20214;-70
2023/05/26 02:33:54;;;;;;;25.20;5.67;;;;;;;8.44;100.00;102925.38;4990519;28;20257;-70
2023/05/26 02:36:19;;;;;;;18.30;5.27;;;;;;;8.46;100.00;102928.94;5004528;28;20270;-69
2023/05/26 02:38:45;;;;;;;25.80;5.57;;;;;;;8.42;100.00;102923.53;5001285;28;20835;-70
2023/05/26 02:41:11;;;;;;;26.07;5.80;;;;;;;8.42;100.00;102932.06;4986139;28;20214;-70
2023/05/26 02:43:38;;;;;;;23.70;5.70;;;;;;;8.33;100.00;102940.81;5006488;28;20199;-70
2023/05/26 02:46:04;;;;;;;27.27;5.60;;;;;;;8.28;100.00;102937.09;5008176;28;20289;-70
2023/05/26 02:48:29;;;;;;;28.27;5.70;;;;;;;8.26;100.00;102942.13;4985957;28;20195;-70
2023/05/26 02:50:59;;;;;;;27.57;6.27;;;;;;;8.28;100.00;102937.09;5005439;28;20246;-70
2023/05/26 02:53:25;;;;;;;26.67;5.33;;;;;;;8.27;100.00;102941.34;4990273;28;20190;-70
2023/05/26 02:55:50;;;;;;;24.10;5.23;;;;;;;8.25;100.00;102932.69;4974957;28;20305;-70
2023/05/26 02:58:16;;;;;;;25.97;5.73;;;;;;;8.17;100.00;102938.97;4989895;28;20285;-70
2023/05/26 03:00:41;;;;;;;30.93;6.00;;;;;;;8.14;100.00;102936.22;4989927;28;20207;-70
2023/05/26 03:03:07;;;;;;;23.80;5.43;;;;;;;8.13;100.00;102938.69;5005594;28;20191;-70
2023/05/26 03:05:32;;;;;;;24.77;5.20;;;;;;;8.05;100.00;102929.66;4992780;28;20570;-70
2023/05/26 03:07:58;;;;;;;21.20;5.37;;;;;;;8.03;100.00;102931.25;4992503;28;20199;-70
2023/05/26 03:10:24;;;;;;;26.30;6.10;;;;;;;7.97;100.00;102931.72;4993137;28;20223;-70
2023/05/26 03:12:49;;;;;;;26.53;5.47;;;;;;;7.91;100.00;102931.34;4993694;28;20657;-70
2023/05/26 03:15:15;;;;;;;33.93;6.10;;;;;;;7.91;100.00;102940.66;5033623;28;20222;-70
2023/05/26 03:17:40;;;;;;;26.47;5.50;;;;;;;7.90;100.00;102939.78;4994574;28;20206;-70
2023/05/26 03:20:06;;;;;;;26.00;5.83;;;;;;;7.88;100.00;102946.44;4993541;28;20219;-71
2023/05/26 03:22:32;;;;;;;23.13;6.03;;;;;;;7.86;100.00;102947.13;4993388;28;20215;-70
2023/05/26 03:24:58;;;;;;;31.83;6.53;;;;;;;7.81;100.00;102948.50;4989891;28;20877;-70
2023/05/26 03:27:31;;;;;;;27.27;5.20;;;;;;;7.81;100.00;102956.16;5026241;28;20199;-70
2023/05/26 03:29:57;;;;;;;23.93;5.73;;;;;;;7.79;100.00;102950.09;4993440;28;20234;-70
2023/05/26 03:32:23;;;;;;;26.80;6.17;;;;;;;7.76;100.00;102948.22;4994361;28;20264;-70
2023/05/26 03:34:48;;;;;;;22.70;5.43;;;;;;;7.78;100.00;102959.41;4992578;28;20245;-70
2023/05/26 03:37:15;;;;;;;22.40;5.63;;;;;;;7.76;100.00;102955.88;4988387;28;20207;-70
2023/05/26 03:39:42;;;;;;;27.70;6.37;;;;;;;7.75;100.00;102956.66;5025537;28;20290;-70
2023/05/26 03:42:08;;;;;;;32.33;6.10;;;;;;;7.76;100.00;102949.88;4993312;28;20191;-70
2023/05/26 03:44:35;;;;;;;31.17;6.80;;;;;;;7.75;100.00;102951.56;4990584;28;20199;-70
2023/05/26 03:47:01;;;;;;;28.20;6.07;;;;;;;7.74;100.00;102957.44;4993515;28;20920;-70
2023/05/26 03:49:26;;;;;;;23.30;5.80;;;;;;;7.74;100.00;102957.44;4990344;28;20251;-70
2023/05/26 03:51:53;;;;;;;24.67;5.20;;;;;;;7.73;100.00;102953.13;4994171;28;20205;-70
2023/05/26 03:54:18;;;;;;;25.20;5.70;;;;;;;7.77;100.00;102955.09;4977962;28;20680;-70
2023/05/26 03:56:44;;;;;;;24.30;5.57;;;;;;;7.80;100.00;102954.41;4994060;28;20199;-70
2023/05/26 03:59:10;;;;;;;23.47;6.03;;;;;;;7.81;100.00;102958.72;4992811;28;20222;-70
2023/05/26 04:01:36;;;;;;;22.83;5.47;;;;;;;7.82;100.00;102969.00;4991359;28;20227;-69
2023/05/26 04:04:03;;;;;;;30.80;6.17;;;;;;;7.85;100.00;102960.69;4990369;28;20593;-69
2023/05/26 04:06:30;;;;;;;23.87;5.60;;;;;;;7.81;100.00;102962.16;5026300;28;21190;-70
2023/05/26 04:08:56;;;;;;;29.53;7.23;;;;;;;7.85;100.00;102960.69;4992403;28;20301;-70
2023/05/26 04:11:22;;;;;;;26.43;5.60;;;;;;;7.89;100.00;102957.53;5007498;28;20210;-69
2023/05/26 04:13:47;;;;;;;30.00;6.20;;;;;;;7.93;100.00;102960.38;5009067;28;20191;-70
2023/05/26 04:16:13;;;;;;;32.87;5.97;;;;;;;7.94;100.00;102963.81;4993120;28;20191;-69
2023/05/26 04:18:40;;;;;;;25.90;6.37;;;;;;;7.95;100.00;102965.56;5007500;28;20221;-70
2023/05/26 04:21:07;;;;;;;35.87;6.07;;;;;;;7.96;100.00;102972.44;4993395;28;20202;-69
2023/05/26 04:23:32;;;;;;;32.77;6.30;;;;;;;7.98;100.00;102969.22;4993939;28;20321;-69
2023/05/26 04:25:58;;;;;;;24.30;5.43;;;;;;;8.07;100.00;102968.91;4993738;28;20633;-70
2023/05/26 04:29:02;;;;;;;27.97;6.27;;;;;;;8.12;100.00;102975.19;4991540;28;20223;-70
2023/05/26 04:31:42;;;;;;;32.17;6.50;;;;;;;8.15;100.00;102970.28;4994046;28;20672;-69
2023/05/26 04:34:37;;;;;;;24.97;5.80;;;;;;;8.22;100.00;102981.00;4990733;28;20202;-70
2023/05/26 04:37:09;;;;;;;29.13;5.70;;;;;;;8.31;100.00;102983.25;5003121;28;20195;-70
2023/05/26 04:39:35;;;;;;;28.30;6.03;;;;;;;8.36;100.00;102984.41;4993401;28;20214;-69
2023/05/26 04:42:03;;;;;;;28.17;6.30;;;;;;;8.41;100.00;102983.03;4997154;28;20238;-70
2023/05/26 04:44:31;;;;;;;30.90;6.23;;;;;;;8.46;100.00;102991.84;4992694;28;21013;-70
2023/05/26 04:46:57;;;;;;;25.30;5.47;;;;;;;8.49;100.00;102990.41;4991860;28;20194;-69
2023/05/26 04:49:23;;;;;;;30.10;6.73;;;;;;;8.55;100.00;102992.41;4993946;28;20223;-69
2023/05/26 04:51:58;;;;;;;27.30;5.70;;;;;;;8.58;100.00;102987.50;4993234;28;20234;-69
2023/05/26 04:54:24;;;;;;;24.23;4.77;;;;;;;8.65;100.00;102993.09;4991466;28;20225;-70
2023/05/26 04:56:50;;;;;;;30.40;6.20;;;;;;;8.68;100.00;102992.38;4976240;28;20245;-70
2023/05/26 04:59:21;;;;;;;30.50;6.23;;;;;;;8.73;100.00;102997.00;4993495;28;20222;-71
2023/05/26 05:01:47;;;;;;;30.57;7.00;;;;;;;8.83;100.00;103006.97;4992868;28;20562;-69
2023/05/26 05:04:19;;;;;;;30.97;6.37;;;;;;;8.94;100.00;103002.53;5009631;28;20210;-70
2023/05/26 05:06:50;;;;;;;29.70;6.93;;;;;;;9.05;100.00;103006.59;4991172;28;20191;-70
2023/05/26 05:09:15;;;;;;;24.07;5.53;;;;;;;9.09;100.00;103004.34;4992089;28;20221;-69
2023/05/26 05:11:41;;;;;;;26.90;5.93;;;;;;;9.20;100.00;103010.97;5009455;28;20806;-71
2023/05/26 05:14:07;;;;;;;29.00;6.37;;;;;;;9.27;100.00;103005.41;4993380;28;20198;-70
2023/05/26 05:16:32;;;;;;;30.10;5.63;;;;;;;9.33;100.00;103008.34;5006784;28;20567;-70
2023/05/26 05:18:58;;;;;;;32.20;6.57;;;;;;;9.40;100.00;103007.91;4993220;28;20221;-69
2023/05/26 05:21:24;;;;;;;27.67;6.47;;;;;;;9.51;100.00;103009.44;4993275;28;20660;-70
2023/05/26 05:23:52;;;;;;;26.07;5.77;;;;;;;9.67;100.00;103006.09;4990815;28;20284;-69
2023/05/26 05:26:18;;;;;;;27.93;6.27;;;;;;;9.80;100.00;103001.75;4991304;28;20194;-70
2023/05/26 05:28:44;;;;;;;29.70;6.50;;;;;;;9.87;100.00;102996.16;5024051;28;20187;-70
2023/05/26 05:31:19;;;;;;;21.47;5.17;;;;;;;10.01;100.00;103004.63;4986230;28;20298;-69
2023/05/26 05:33:45;;;;;;;25.87;5.47;;;;;;;10.00;100.00;103019.09;4975111;28;20667;-70
2023/05/26 05:36:11;;;;;;;29.30;6.07;;;;;;;10.06;100.00;103000.69;4991494;28;20195;-71
2023/05/26 05:38:38;;;;;;;30.60;5.67;;;;;;;10.19;100.00;103009.13;4978667;28;20194;-70
2023/05/26 05:41:03;;;;;;;29.50;6.37;;;;;;;10.29;100.00;103013.09;4991224;28;20585;-69
2023/05/26 05:43:29;;;;;;;26.53;6.90;;;;;;;10.43;100.00;103019.84;4983661;28;20281;-69
2023/05/26 05:45:55;;;;;;;20.27;5.23;;;;;;;10.56;100.00;103023.16;4991701;28;20691;-69
2023/05/26 05:48:42;;;;;;;29.20;6.00;;;;;;;10.70;100.00;103011.97;4995481;28;20222;-69
2023/05/26 05:51:12;;;;;;;26.00;6.07;;;;;;;10.72;100.00;103010.38;4989316;28;20215;-69
2023/05/26 05:53:37;;;;;;;23.63;5.87;;;;;;;10.86;100.00;102999.19;4991998;28;20198;-70
2023/05/26 05:56:03;;;;;;;27.07;5.57;;;;;;;10.93;100.00;103006.38;4993317;28;20595;-69
2023/05/26 05:58:28;;;;;;;23.23;5.77;;;;;;;11.04;100.00;102994.13;4990856;28;20199;-69
2023/05/26 06:00:54;;;;;;;25.67;5.53;;;;;;;11.15;100.00;102991.31;4994806;28;20301;-69
2023/05/26 06:03:19;;;;;;;28.20;6.10;;;;;;;11.34;100.00;102988.88;4988388;28;20637;-70
2023/05/26 06:05:45;;;;;;;26.27;5.97;;;;;;;11.42;100.00;102996.94;4991077;28;20202;-70
2023/05/26 06:08:11;;;;;;;25.20;5.07;;;;;;;11.54;100.00;102971.91;4991377;28;20238;-71
2023/05/26 06:10:37;;;;;;;25.50;5.67;;;;;;;11.65;100.00;102955.38;4990250;28;20310;-71
2023/05/26 06:13:02;;;;;;;24.17;5.23;;;;;;;11.70;100.00;102924.03;4988763;28;20643;-72
2023/05/26 06:15:27;;;;;;;28.30;6.27;;;;;;;11.62;100.00;102903.94;4993106;28;20187;-74
2023/05/26 06:17:56;;;;;;;22.50;5.27;;;;;;;11.75;100.00;102924.25;4990581;28;20665;-73
2023/05/26 06:20:22;;;;;;;24.33;5.63;;;;;;;11.94;100.00;102906.34;4992709;28;20203;-72
2023/05/26 06:22:47;;;;;;;22.67;6.00;;;;;;;12.02;100.00;102885.34;4991024;28;20218;-73
2023/05/26 06:25:13;;;;;;;16.27;5.10;;;;;;;12.20;100.00;102885.28;5005112;28;20195;-72
2023/05/26 06:27:40;;;;;;;21.80;5.33;;;;;;;12.23;100.00;102893.16;5002772;28;20278;-72
2023/05/26 06:30:07;;;;;;;22.37;4.67;;;;;;;12.43;100.00;102882.97;4995961;28;20250;-72
2023/05/26 06:32:32;;;;;;;21.07;5.17;;;;;;;12.33;100.00;102838.81;4993010;28;20190;-73
2023/05/26 06:34:58;;;;;;;23.60;5.03;;;;;;;12.31;100.00;102825.03;4994793;28;20199;-71
2023/05/26 06:37:23;;;;;;;21.90;5.20;;;;;;;12.45;100.00;102842.78;5006997;28;20221;-71
2023/05/26 06:39:49;;;;;;;24.60;5.37;;;;;;;12.62;100.00;102830.66;4979078;28;20203;-71
2023/05/26 06:42:19;;;;;;;21.03;4.87;;;;;;;12.72;100.00;102809.69;4992737;28;20619;-72
2023/05/26 06:44:44;;;;;;;20.43;5.27;;;;;;;13.02;100.00;102812.72;4980218;28;20246;-71
2023/05/26 06:47:10;;;;;;;17.80;5.23;;;;;;;13.18;100.00;102807.34;5004825;28;20293;-71
2023/05/26 06:49:41;;;;;;;17.93;5.37;;;;;;;13.23;100.00;102772.41;4997784;28;20249;-74
2023/05/26 06:52:10;;;;;;;20.00;5.17;;;;;;;13.23;100.00;102762.09;5003284;28;20201;-72
2023/05/26 06:54:37;;;;;;;18.27;5.30;;;;;;;13.40;100.00;102745.63;5017524;28;21434;-72
2023/05/26 06:57:02;;;;;;;22.07;4.80;;;;;;;13.42;100.00;102733.69;4982201;28;20236;-72
2023/05/26 06:59:29;;;;;;;19.97;5.63;;;;;;;13.53;100.00;102753.88;4996460;28;20708;-73
2023/05/26 07:01:55;;;;;;;18.97;5.47;;;;;;;13.74;100.00;102735.78;4981211;28;20199;-74
2023/05/26 07:04:21;;;;;;;19.30;5.53;;;;;;;13.90;100.00;102741.53;5015704;28;20245;-72
2023/05/26 07:06:46;;;;;;;20.70;5.37;;;;;;;13.90;100.00;102713.22;5018189;28;20190;-73
2023/05/26 07:09:12;;;;;;;18.60;4.63;;;;;;;14.12;100.00;102708.00;4995762;28;20249;-72
2023/05/26 07:11:48;;;;;;;22.03;5.07;;;;;;;14.13;100.00;102699.44;4993550;28;20249;-74
2023/05/26 07:14:34;;;;;;;18.03;4.50;;;;;;;14.08;100.00;102674.38;5011263;28;20222;-73
2023/05/26 07:16:59;;;;;;;20.73;5.73;;;;;;;14.20;100.00;102679.91;4997474;28;20195;-73
2023/05/26 07:19:26;;;;;;;23.27;5.43;;;;;;;14.47;100.00;102683.47;4998435;28;20258;-73
2023/05/26 07:21:51;;;;;;;18.10;4.77;;;;;;;14.58;100.00;102689.84;4999737;28;20218;-72
2023/05/26 07:24:17;;;;;;;19.10;5.10;;;;;;;14.60;100.00;102686.47;5014680;28;20203;-73
2023/05/26 07:26:42;;;;;;;17.53;5.13;;;;;;;14.84;100.00;102696.72;4997462;28;20241;-72
2023/05/26 07:29:08;;;;;;;14.70;4.40;;;;;;;14.87;100.00;102674.47;5002938;28;20307;-73
2023/05/26 07:31:34;;;;;;;20.07;5.83;;;;;;;14.90;98.52;102646.19;5014491;28;20278;-72
2023/05/26 07:33:59;;;;;;;20.73;4.83;;;;;;;15.21;100.00;102660.91;4998437;28;20327;-74
2023/05/26 07:36:25;;;;;;;23.60;4.80;;;;;;;15.22;95.06;102624.81;4982057;28;20222;-72
2023/05/26 07:38:50;;;;;;;18.37;5.00;;;;;;;15.17;96.50;102644.44;5009109;28;20207;-74
2023/05/26 07:41:16;;;;;;;19.77;4.70;;;;;;;15.33;91.77;102622.53;4998810;28;20240;-72
2023/05/26 07:43:42;;;;;;;19.40;5.47;;;;;;;15.46;95.29;102651.34;5010657;28;20249;-72
2023/05/26 07:46:07;;;;;;;23.63;5.30;;;;;;;15.60;95.02;102643.97;5007400;28;20199;-72
2023/05/26 07:48:32;;;;;;;14.07;4.40;;;;;;;15.79;89.34;102610.09;5009993;28;20724;-71
2023/05/26 07:50:58;;;;;;;21.77;5.07;;;;;;;15.82;89.02;102607.56;5010759;28;20214;-72
2023/05/26 07:53:23;;;;;;;18.97;4.47;;;;;;;16.18;93.61;102648.19;5011641;28;20873;-72
2023/05/26 07:55:49;;;;;;;15.47;4.20;;;;;;;15.94;90.30;102637.19;5006209;28;20711;-72
2023/05/26 07:58:14;;;;;;;19.47;5.20;;;;;;;15.92;84.30;102622.47;5013202;28;20198;-73
2023/05/26 08:00:40;;;;;;;16.47;4.47;;;;;;;16.25;84.03;102639.72;5012039;28;20213;-73
2023/05/26 08:03:05;;;;;;;16.07;4.50;;;;;;;16.13;80.46;102618.75;4996967;28;20592;-71
2023/05/26 08:05:31;;;;;;;16.03;4.70;;;;;;;16.28;79.61;102631.19;5012748;28;20191;-75
2023/05/26 08:07:57;;;;;;;15.77;3.97;;;;;;;16.10;77.92;102634.19;4997314;28;20217;-72
2023/05/26 08:10:23;;;;;;;14.03;3.93;;;;;;;16.36;78.27;102634.84;5010772;28;20596;-71
2023/05/26 08:12:50;;;;;;;23.27;4.70;;;;;;;16.73;83.95;102673.72;5007674;28;20186;-73
2023/05/26 08:15:16;;;;;;;19.27;4.27;;;;;;;17.02;76.53;102649.38;5010945;28;20206;-72
2023/05/26 08:17:42;;;;;;;14.10;3.80;;;;;;;17.05;74.37;102637.41;4997597;28;20589;-73
2023/05/26 08:20:08;;;;;;;15.87;4.17;;;;;;;17.30;72.74;102641.34;5001401;28;20654;-74
2023/05/26 08:22:34;;;;;;;15.23;3.90;;;;;;;17.09;70.92;102656.44;5008972;28;20637;-74
2023/05/26 08:25:00;;;;;;;13.93;4.00;;;;;;;17.23;67.80;102647.25;4997200;28;20297;-73
2023/05/26 08:27:26;;;;;;;13.43;4.20;;;;;;;17.42;70.76;102670.16;5010071;28;20202;-72
2023/05/26 08:29:51;;;;;;;18.80;4.23;;;;;;;17.15;67.68;102651.38;4993955;28;20234;-71
2023/05/26 08:32:17;;;;;;;14.20;3.57;;;;;;;17.34;62.71;102622.44;4999387;28;20344;-73
2023/05/26 08:34:42;;;;;;;15.13;4.60;;;;;;;17.42;63.72;102645.13;5006636;28;20191;-74
2023/05/26 08:37:09;;;;;;;14.43;4.40;;;;;;;17.53;63.76;102661.75;5010650;28;20681;-72
2023/05/26 08:39:34;;;;;;;18.47;4.73;;;;;;;17.58;64.34;102673.06;5008530;28;20218;-72
2023/05/26 08:42:03;;;;;;;11.93;3.77;;;;;;;17.85;61.38;102646.81;5009526;28;20586;-71
2023/05/26 08:44:29;;;;;;;16.13;3.90;;;;;;;18.19;60.69;102686.34;5010671;28;20321;-72
2023/05/26 08:46:57;;;;;;;16.50;4.27;;;;;;;18.07;62.23;102716.38;4996976;28;20248;-72
2023/05/26 08:49:23;;;;;;;17.13;4.83;;;;;;;18.08;63.18;102720.72;5010409;28;20219;-72
2023/05/26 08:52:02;;;;;;;12.97;3.87;;;;;;;18.42;61.03;102700.63;5009666;28;20199;-74
2023/05/26 08:54:28;;;;;;;13.43;4.00;;;;;;;18.67;58.56;102688.94;5002969;28;20676;-72
2023/05/26 08:56:55;;;;;;;15.17;4.10;;;;;;;18.56;60.50;102732.88;5025177;28;20199;-72
2023/05/26 08:59:21;;;;;;;14.90;4.20;;;;;;;18.39;58.41;102720.47;4991464;28;20219;-71
2023/05/26 09:01:46;;;;;;;15.70;4.47;;;;;;;18.70;57.53;102712.38;5009205;28;20195;-72
2023/05/26 09:04:12;;;;;;;17.67;4.53;;;;;;;18.60;56.41;102713.91;5006257;28;20183;-72
2023/05/26 09:06:54;;;;;;;13.80;4.00;;;;;;;18.66;54.62;102698.44;5028977;28;20199;-72
2023/05/26 09:09:20;;;;;;;16.60;4.10;;;;;;;18.72;55.71;102711.53;5005070;28;20317;-72
2023/05/26 09:11:48;;;;;;;15.57;4.17;;;;;;;18.95;56.90;102745.66;5004907;28;20974;-73
2023/05/26 09:14:20;;;;;;;16.03;5.67;;;;;;;19.21;55.73;102714.00;5008893;28;20265;-73
2023/05/26 09:16:46;;;;;;;14.03;4.27;;;;;;;19.29;55.73;102732.34;4987486;28;20691;-72
2023/05/26 09:19:14;;;;;;;14.87;4.07;;;;;;;19.12;53.74;102713.88;4993898;28;20211;-72
2023/05/26 09:21:46;;;;;;;16.73;4.30;;;;;;;19.39;54.93;102729.88;5009527;28;20225;-72
2023/05/26 09:24:27;;;;;;;15.87;4.33;;;;;;;19.81;56.09;102746.03;4991640;28;20322;-71
2023/05/26 09:26:53;;;;;;;13.43;3.80;;;;;;;19.59;52.04;102696.38;5005885;28;20186;-73
2023/05/26 09:29:18;;;;;;;13.03;4.00;;;;;;;19.80;53.68;102746.91;5004490;28;20230;-75
2023/05/26 09:31:46;;;;;;;13.90;4.10;;;;;;;20.00;53.50;102742.78;4993394;28;20198;-72
2023/05/26 09:34:13;;;;;;;13.13;4.37;;;;;;;20.34;52.72;102723.25;5007183;28;20634;-73
2023/05/26 09:36:40;;;;;;;12.40;4.00;;;;;;;19.84;50.43;102714.88;5007450;28;20237;-73
2023/05/26 09:39:08;;;;;;;12.77;4.40;;;;;;;19.71;51.33;102725.97;5010007;28;20223;-72
2023/05/26 09:41:36;;;;;;;11.73;3.70;;;;;;;20.21;51.21;102731.78;5008101;28;20265;-72
2023/05/26 09:44:12;;;;;;;14.90;4.00;;;;;;;20.56;52.71;102739.09;5006517;28;20214;-73
2023/05/26 09:46:39;;;;;;;16.57;4.23;;;;;;;20.33;50.35;102713.69;5010650;28;20639;-71
2023/05/26 09:49:16;;;;;;;17.27;4.40;;;;;;;20.08;49.66;102715.19;5007337;28;20269;-73
2023/05/26 09:51:48;;;;;;;13.70;4.37;;;;;;;20.33;49.37;102730.19;5006055;28;20218;-71
2023/05/26 09:54:15;;;;;;;12.93;3.93;;;;;;;20.49;50.22;102754.66;5003423;28;20183;-71
2023/05/26 09:56:47;;;;;;;13.70;4.20;;;;;;;20.50;48.80;102725.16;5008419;28;20199;-71
2023/05/26 09:59:16;;;;;;;11.50;4.17;;;;;;;20.80;48.87;102731.50;5009804;28;20747;-72
2023/05/26 10:01:43;;;;;;;15.57;4.43;;;;;;;20.74;48.60;102727.97;5006527;28;20295;-71
2023/05/26 10:04:10;;;;;;;11.83;4.00;;;;;;;20.74;48.96;102734.06;4989938;28;20194;-71
2023/05/26 10:06:36;;;;;;;12.67;4.33;;;;;;;21.10;48.95;102725.66;4992526;28;20227;-72
2023/05/26 10:09:04;;;;;;;14.23;4.53;;;;;;;20.31;47.80;102713.69;5005382;28;20243;-71
2023/05/26 10:11:33;;;;;;;13.47;4.43;;;;;;;19.56;49.05;102753.50;5007545;28;20668;-71
2023/05/26 10:14:00;;;;;;;15.40;4.43;;;;;;;20.65;49.28;102753.91;5009898;28;20855;-70
2023/05/26 10:16:26;;;;;;;15.17;4.87;;;;;;;21.03;49.70;102744.72;4993882;28;21037;-71
2023/05/26 10:18:51;;;;;;;18.27;4.90;;;;;;;21.45;49.00;102729.31;5010051;28;20211;-72
2023/05/26 10:21:23;;;;;;;13.00;4.20;;;;;;;21.41;46.62;102712.81;4994512;28;20187;-73
2023/05/26 10:24:02;;;;;;;13.30;4.40;;;;;;;21.60;46.76;102708.56;5010844;28;20664;-72
2023/05/26 10:26:58;;;;;;;10.07;3.83;;;;;;;21.35;48.32;102764.03;5007317;28;20935;-71
2023/05/26 10:29:36;;;;;;;11.20;4.53;;;;;;;21.44;48.67;102754.53;4992778;28;20261;-71
2023/05/26 10:32:03;;;;;;;16.17;4.93;;;;;;;20.95;47.59;102738.56;4994293;28;20309;-71
2023/05/26 10:34:37;;;;;;;12.17;4.30;;;;;;;21.24;47.06;102747.47;5010707;28;20197;-72
2023/05/26 10:37:12;;;;;;;11.23;4.53;;;;;;;21.74;46.61;102741.66;5010555;28;20813;-71
2023/05/26 10:39:38;;;;;;;14.43;4.37;;;;;;;21.84;47.85;102779.13;5011655;28;20238;-71
2023/05/26 10:42:18;;;;;;;11.10;4.50;;;;;;;21.93;48.06;102776.56;5011658;28;20238;-71
2023/05/26 10:44:46;;;;;;;12.53;4.27;;;;;;;21.81;44.19;102724.31;5009695;28;20191;-72
2023/05/26 10:47:14;;;;;;;12.97;4.40;;;;;;;21.95;45.84;102765.25;5009684;28;20195;-72
2023/05/26 10:49:39;;;;;;;12.43;4.30;;;;;;;21.98;46.43;102770.47;5011370;28;20250;-71
2023/05/26 10:52:14;;;;;;;15.83;4.37;;;;;;;21.95;45.57;102819.16;5010151;28;20606;-72
2023/05/26 10:54:42;;;;;;;14.03;4.50;;;;;;;21.88;46.04;102836.53;4994971;28;20194;-73
2023/05/26 10:57:29;;;;;;;9.80;3.97;;;;;;;22.38;46.52;102847.16;5008826;28;20195;-72
2023/05/26 10:59:54;;;;;;;15.20;4.80;;;;;;;22.33;45.43;102835.00;5007717;28;20245;-71
2023/05/26 11:02:20;;;;;;;11.10;4.17;;;;;;;22.25;45.59;102842.81;4993606;28;20628;-72
2023/05/26 11:04:48;;;;;;;11.93;4.00;;;;;;;22.37;43.87;102815.84;4993785;28;20293;-73
2023/05/26 11:07:26;;;;;;;14.80;4.73;;;;;;;22.38;43.43;102811.50;5009414;28;20731;-72
2023/05/26 11:09:59;;;;;;;12.43;4.30;;;;;;;22.48;44.08;102837.66;5020620;28;20254;-71
2023/05/26 11:12:24;;;;;;;10.43;4.23;;;;;;;22.29;43.84;102827.13;5008660;28;20278;-71
2023/05/26 11:14:50;;;;;;;13.30;4.47;;;;;;;22.69;43.33;102820.28;5010966;28;20199;-72
2023/05/26 11:17:19;;;;;;;12.67;4.37;;;;;;;22.51;44.14;102832.47;5009910;28;20241;-71